sensor_id;sensor_type;location;lat;lon;timestamp;temperature;humidity
67196;DHT22;54122;53.538;49.366;2022-08-21T00:00:38;13.50;69.90
67196;DHT22;54122;53.538;49.366;2022-08-21T00:03:10;13.40;69.90
67196;DHT22;54122;53.538;49.366;2022-08-21T00:05:43;13.40;69.90
67196;DHT22;54122;53.538;49.366;2022-08-21T00:08:15;13.30;70.10
67196;DHT22;54122;53.538;49.366;2022-08-21T00:10:46;13.30;70.50
67196;DHT22;54122;53.538;49.366;2022-08-21T00:13:18;13.20;70.40
67196;DHT22;54122;53.538;49.366;2022-08-21T00:15:52;13.20;70.70
67196;DHT22;54122;53.538;49.366;2022-08-21T00:18:23;13.20;70.80
67196;DHT22;54122;53.538;49.366;2022-08-21T00:20:55;13.20;71.00
67196;DHT22;54122;53.538;49.366;2022-08-21T00:23:26;13.10;71.00
67196;DHT22;54122;53.538;49.366;2022-08-21T00:25:58;13.10;71.40
67196;DHT22;54122;53.538;49.366;2022-08-21T00:28:29;13.10;71.40
67196;DHT22;54122;53.538;49.366;2022-08-21T00:31:00;13.10;71.50
67196;DHT22;54122;53.538;49.366;2022-08-21T00:33:34;13.00;71.50
67196;DHT22;54122;53.538;49.366;2022-08-21T00:36:06;13.00;71.50
67196;DHT22;54122;53.538;49.366;2022-08-21T00:38:37;13.00;71.50
67196;DHT22;54122;53.538;49.366;2022-08-21T00:41:09;12.90;71.70
67196;DHT22;54122;53.538;49.366;2022-08-21T00:43:41;12.90;71.80
67196;DHT22;54122;53.538;49.366;2022-08-21T00:46:12;12.90;71.80
67196;DHT22;54122;53.538;49.366;2022-08-21T00:48:43;12.90;71.80
67196;DHT22;54122;53.538;49.366;2022-08-21T00:51:23;12.90;71.80
67196;DHT22;54122;53.538;49.366;2022-08-21T00:53:57;12.90;72.00
67196;DHT22;54122;53.538;49.366;2022-08-21T00:56:30;12.90;72.10
67196;DHT22;54122;53.538;49.366;2022-08-21T00:59:02;12.80;72.20
67196;DHT22;54122;53.538;49.366;2022-08-21T01:01:33;12.80;72.30
67196;DHT22;54122;53.538;49.366;2022-08-21T01:04:05;12.80;72.30
67196;DHT22;54122;53.538;49.366;2022-08-21T01:06:36;12.80;72.40
67196;DHT22;54122;53.538;49.366;2022-08-21T01:09:08;12.80;72.30
67196;DHT22;54122;53.538;49.366;2022-08-21T01:11:40;12.80;72.50
67196;DHT22;54122;53.538;49.366;2022-08-21T01:14:13;12.80;72.70
67196;DHT22;54122;53.538;49.366;2022-08-21T01:16:46;12.80;73.10
67196;DHT22;54122;53.538;49.366;2022-08-21T01:19:18;12.80;73.00
67196;DHT22;54122;53.538;49.366;2022-08-21T01:21:50;12.90;73.10
67196;DHT22;54122;53.538;49.366;2022-08-21T01:24:22;12.80;73.20
67196;DHT22;54122;53.538;49.366;2022-08-21T01:26:53;12.80;73.40
67196;DHT22;54122;53.538;49.366;2022-08-21T01:32:16;12.90;73.60
67196;DHT22;54122;53.538;49.366;2022-08-21T01:34:47;12.90;73.60
67196;DHT22;54122;53.538;49.366;2022-08-21T01:37:20;12.90;73.60
67196;DHT22;54122;53.538;49.366;2022-08-21T01:39:52;12.90;73.50
67196;DHT22;54122;53.538;49.366;2022-08-21T01:42:24;12.90;73.50
67196;DHT22;54122;53.538;49.366;2022-08-21T01:44:55;12.90;73.40
67196;DHT22;54122;53.538;49.366;2022-08-21T01:47:27;13.00;73.40
67196;DHT22;54122;53.538;49.366;2022-08-21T01:49:58;13.00;73.60
67196;DHT22;54122;53.538;49.366;2022-08-21T01:52:30;13.00;73.60
67196;DHT22;54122;53.538;49.366;2022-08-21T01:55:02;13.10;73.50
67196;DHT22;54122;53.538;49.366;2022-08-21T01:57:33;13.10;73.60
67196;DHT22;54122;53.538;49.366;2022-08-21T02:00:05;13.10;73.50
67196;DHT22;54122;53.538;49.366;2022-08-21T02:02:37;13.10;73.30
67196;DHT22;54122;53.538;49.366;2022-08-21T02:05:10;13.20;73.20
67196;DHT22;54122;53.538;49.366;2022-08-21T02:07:42;13.40;73.20
67196;DHT22;54122;53.538;49.366;2022-08-21T02:10:15;13.80;72.90
67196;DHT22;54122;53.538;49.366;2022-08-21T02:12:47;14.40;71.40
67196;DHT22;54122;53.538;49.366;2022-08-21T02:15:18;14.90;69.70
67196;DHT22;54122;53.538;49.366;2022-08-21T02:17:52;15.60;68.40
67196;DHT22;54122;53.538;49.366;2022-08-21T02:20:25;16.40;66.30
67196;DHT22;54122;53.538;49.366;2022-08-21T02:22:57;17.20;64.00
67196;DHT22;54122;53.538;49.366;2022-08-21T02:25:28;17.90;61.80
67196;DHT22;54122;53.538;49.366;2022-08-21T02:28:01;18.70;60.10
67196;DHT22;54122;53.538;49.366;2022-08-21T02:30:35;19.40;58.10
67196;DHT22;54122;53.538;49.366;2022-08-21T02:33:09;19.90;56.40
67196;DHT22;54122;53.538;49.366;2022-08-21T02:35:42;20.50;54.70
67196;DHT22;54122;53.538;49.366;2022-08-21T02:38:15;20.90;53.40
67196;DHT22;54122;53.538;49.366;2022-08-21T02:40:48;21.30;52.10
67196;DHT22;54122;53.538;49.366;2022-08-21T02:43:20;21.60;51.00
67196;DHT22;54122;53.538;49.366;2022-08-21T02:45:52;22.00;50.40
67196;DHT22;54122;53.538;49.366;2022-08-21T02:48:29;22.40;49.00
67196;DHT22;54122;53.538;49.366;2022-08-21T02:51:01;22.80;47.90
67196;DHT22;54122;53.538;49.366;2022-08-21T02:53:34;23.20;46.80
67196;DHT22;54122;53.538;49.366;2022-08-21T02:56:06;23.70;45.90
67196;DHT22;54122;53.538;49.366;2022-08-21T02:58:40;24.20;44.80
67196;DHT22;54122;53.538;49.366;2022-08-21T03:01:12;24.70;43.80
67196;DHT22;54122;53.538;49.366;2022-08-21T03:03:44;25.20;42.80
67196;DHT22;54122;53.538;49.366;2022-08-21T03:06:16;25.50;41.90
67196;DHT22;54122;53.538;49.366;2022-08-21T03:08:48;26.00;41.20
67196;DHT22;54122;53.538;49.366;2022-08-21T03:11:19;26.40;40.40
67196;DHT22;54122;53.538;49.366;2022-08-21T03:13:51;26.90;39.60
67196;DHT22;54122;53.538;49.366;2022-08-21T03:16:22;27.20;39.00
67196;DHT22;54122;53.538;49.366;2022-08-21T03:18:54;27.40;38.50
67196;DHT22;54122;53.538;49.366;2022-08-21T03:21:25;27.70;38.10
67196;DHT22;54122;53.538;49.366;2022-08-21T03:23:57;28.00;37.70
67196;DHT22;54122;53.538;49.366;2022-08-21T03:26:28;28.20;36.50
67196;DHT22;54122;53.538;49.366;2022-08-21T03:28:59;28.40;35.70
67196;DHT22;54122;53.538;49.366;2022-08-21T03:31:30;28.40;35.50
67196;DHT22;54122;53.538;49.366;2022-08-21T03:34:02;28.40;35.30
67196;DHT22;54122;53.538;49.366;2022-08-21T03:36:33;28.50;35.00
67196;DHT22;54122;53.538;49.366;2022-08-21T03:39:05;28.90;34.60
67196;DHT22;54122;53.538;49.366;2022-08-21T03:41:36;29.30;33.70
67196;DHT22;54122;53.538;49.366;2022-08-21T03:44:07;29.80;33.20
67196;DHT22;54122;53.538;49.366;2022-08-21T03:46:39;30.10;32.60
67196;DHT22;54122;53.538;49.366;2022-08-21T03:49:11;30.50;32.20
67196;DHT22;54122;53.538;49.366;2022-08-21T03:51:43;30.70;31.40
67196;DHT22;54122;53.538;49.366;2022-08-21T03:54:14;30.80;31.00
67196;DHT22;54122;53.538;49.366;2022-08-21T03:56:45;30.80;30.50
67196;DHT22;54122;53.538;49.366;2022-08-21T03:59:17;31.00;30.00
67196;DHT22;54122;53.538;49.366;2022-08-21T04:01:56;31.00;29.90
67196;DHT22;54122;53.538;49.366;2022-08-21T04:04:27;31.10;29.60
67196;DHT22;54122;53.538;49.366;2022-08-21T04:06:59;31.30;29.60
67196;DHT22;54122;53.538;49.366;2022-08-21T04:09:31;31.60;29.50
67196;DHT22;54122;53.538;49.366;2022-08-21T04:12:02;31.80;28.80
67196;DHT22;54122;53.538;49.366;2022-08-21T04:14:34;32.00;28.40
67196;DHT22;54122;53.538;49.366;2022-08-21T04:17:05;32.30;28.40
67196;DHT22;54122;53.538;49.366;2022-08-21T04:19:37;32.20;27.20
67196;DHT22;54122;53.538;49.366;2022-08-21T04:22:09;32.10;27.60
67196;DHT22;54122;53.538;49.366;2022-08-21T04:24:40;32.10;27.80
67196;DHT22;54122;53.538;49.366;2022-08-21T04:27:12;32.30;27.70
67196;DHT22;54122;53.538;49.366;2022-08-21T04:29:43;32.90;27.40
67196;DHT22;54122;53.538;49.366;2022-08-21T04:32:21;33.30;27.00
67196;DHT22;54122;53.538;49.366;2022-08-21T04:35:04;33.50;26.70
67196;DHT22;54122;53.538;49.366;2022-08-21T04:37:36;33.90;26.50
67196;DHT22;54122;53.538;49.366;2022-08-21T04:40:08;34.40;26.20
67196;DHT22;54122;53.538;49.366;2022-08-21T04:42:45;34.80;25.70
67196;DHT22;54122;53.538;49.366;2022-08-21T04:45:26;35.10;25.20
67196;DHT22;54122;53.538;49.366;2022-08-21T04:47:58;35.10;25.10
67196;DHT22;54122;53.538;49.366;2022-08-21T04:53:15;35.00;24.70
67196;DHT22;54122;53.538;49.366;2022-08-21T04:55:46;35.40;24.80
67196;DHT22;54122;53.538;49.366;2022-08-21T04:58:18;35.40;24.50
67196;DHT22;54122;53.538;49.366;2022-08-21T05:00:52;35.70;24.60
67196;DHT22;54122;53.538;49.366;2022-08-21T05:03:24;36.00;24.30
67196;DHT22;54122;53.538;49.366;2022-08-21T05:05:57;36.10;24.10
67196;DHT22;54122;53.538;49.366;2022-08-21T05:08:28;36.30;23.90
67196;DHT22;54122;53.538;49.366;2022-08-21T05:11:00;36.60;23.70
67196;DHT22;54122;53.538;49.366;2022-08-21T05:13:33;36.50;23.60
67196;DHT22;54122;53.538;49.366;2022-08-21T05:16:04;36.50;23.50
67196;DHT22;54122;53.538;49.366;2022-08-21T05:18:36;36.60;23.40
67196;DHT22;54122;53.538;49.366;2022-08-21T05:21:07;36.60;23.20
67196;DHT22;54122;53.538;49.366;2022-08-21T05:23:38;36.60;22.60
67196;DHT22;54122;53.538;49.366;2022-08-21T05:26:10;36.50;22.90
67196;DHT22;54122;53.538;49.366;2022-08-21T05:28:41;36.60;23.10
67196;DHT22;54122;53.538;49.366;2022-08-21T05:31:13;36.80;23.10
67196;DHT22;54122;53.538;49.366;2022-08-21T05:33:44;37.00;23.00
67196;DHT22;54122;53.538;49.366;2022-08-21T05:36:16;37.20;22.60
67196;DHT22;54122;53.538;49.366;2022-08-21T05:38:47;37.30;22.70
67196;DHT22;54122;53.538;49.366;2022-08-21T05:41:19;37.60;22.40
67196;DHT22;54122;53.538;49.366;2022-08-21T05:43:50;37.50;22.30
67196;DHT22;54122;53.538;49.366;2022-08-21T05:46:21;37.60;22.20
67196;DHT22;54122;53.538;49.366;2022-08-21T05:48:53;37.50;21.80
67196;DHT22;54122;53.538;49.366;2022-08-21T05:51:25;37.40;22.10
67196;DHT22;54122;53.538;49.366;2022-08-21T05:53:57;37.70;22.20
67196;DHT22;54122;53.538;49.366;2022-08-21T05:56:29;38.00;21.70
67196;DHT22;54122;53.538;49.366;2022-08-21T05:59:01;38.20;21.80
67196;DHT22;54122;53.538;49.366;2022-08-21T06:01:33;38.20;21.10
67196;DHT22;54122;53.538;49.366;2022-08-21T06:04:04;37.80;21.60
67196;DHT22;54122;53.538;49.366;2022-08-21T06:06:36;37.30;22.10
67196;DHT22;54122;53.538;49.366;2022-08-21T06:09:07;37.20;22.20
67196;DHT22;54122;53.538;49.366;2022-08-21T06:11:39;37.50;22.00
67196;DHT22;54122;53.538;49.366;2022-08-21T06:14:13;37.30;22.00
67196;DHT22;54122;53.538;49.366;2022-08-21T06:16:44;37.40;22.00
67196;DHT22;54122;53.538;49.366;2022-08-21T06:19:15;37.90;22.00
67196;DHT22;54122;53.538;49.366;2022-08-21T06:21:47;38.40;21.40
67196;DHT22;54122;53.538;49.366;2022-08-21T06:24:19;38.90;21.10
67196;DHT22;54122;53.538;49.366;2022-08-21T06:26:50;39.20;20.60
67196;DHT22;54122;53.538;49.366;2022-08-21T06:29:22;38.90;20.70
67196;DHT22;54122;53.538;49.366;2022-08-21T06:31:53;39.00;20.60
67196;DHT22;54122;53.538;49.366;2022-08-21T06:34:24;39.00;20.40
67196;DHT22;54122;53.538;49.366;2022-08-21T06:36:55;38.90;20.40
67196;DHT22;54122;53.538;49.366;2022-08-21T06:39:27;38.80;20.50
67196;DHT22;54122;53.538;49.366;2022-08-21T06:41:58;38.70;20.80
67196;DHT22;54122;53.538;49.366;2022-08-21T06:44:30;38.60;20.90
67196;DHT22;54122;53.538;49.366;2022-08-21T06:47:02;38.70;20.80
67196;DHT22;54122;53.538;49.366;2022-08-21T06:49:34;38.90;20.80
67196;DHT22;54122;53.538;49.366;2022-08-21T06:52:09;39.10;20.50
67196;DHT22;54122;53.538;49.366;2022-08-21T06:54:41;39.10;20.30
67196;DHT22;54122;53.538;49.366;2022-08-21T06:57:12;38.90;20.00
67196;DHT22;54122;53.538;49.366;2022-08-21T06:59:44;38.50;20.30
67196;DHT22;54122;53.538;49.366;2022-08-21T07:02:15;38.30;20.60
67196;DHT22;54122;53.538;49.366;2022-08-21T07:04:46;38.00;20.50
67196;DHT22;54122;53.538;49.366;2022-08-21T07:07:18;37.70;21.10
67196;DHT22;54122;53.538;49.366;2022-08-21T07:09:49;38.00;21.00
67196;DHT22;54122;53.538;49.366;2022-08-21T07:12:20;38.30;20.90
67196;DHT22;54122;53.538;49.366;2022-08-21T07:14:51;38.20;20.60
67196;DHT22;54122;53.538;49.366;2022-08-21T07:17:23;38.10;20.40
67196;DHT22;54122;53.538;49.366;2022-08-21T07:19:54;38.10;20.60
67196;DHT22;54122;53.538;49.366;2022-08-21T07:22:25;38.00;21.80
67196;DHT22;54122;53.538;49.366;2022-08-21T07:24:58;38.50;20.70
67196;DHT22;54122;53.538;49.366;2022-08-21T07:27:30;39.00;20.20
67196;DHT22;54122;53.538;49.366;2022-08-21T07:30:03;39.00;19.50
67196;DHT22;54122;53.538;49.366;2022-08-21T07:32:34;38.90;19.40
67196;DHT22;54122;53.538;49.366;2022-08-21T07:35:05;38.90;19.50
67196;DHT22;54122;53.538;49.366;2022-08-21T07:37:37;38.50;19.20
67196;DHT22;54122;53.538;49.366;2022-08-21T07:40:08;37.90;19.60
67196;DHT22;54122;53.538;49.366;2022-08-21T07:42:43;37.50;20.40
67196;DHT22;54122;53.538;49.366;2022-08-21T07:45:15;37.50;20.50
67196;DHT22;54122;53.538;49.366;2022-08-21T07:47:47;37.80;20.10
67196;DHT22;54122;53.538;49.366;2022-08-21T07:50:18;37.80;19.90
67196;DHT22;54122;53.538;49.366;2022-08-21T07:52:50;37.80;20.40
67196;DHT22;54122;53.538;49.366;2022-08-21T07:55:22;37.90;20.30
67196;DHT22;54122;53.538;49.366;2022-08-21T07:57:53;38.00;20.30
67196;DHT22;54122;53.538;49.366;2022-08-21T08:00:25;38.20;19.90
67196;DHT22;54122;53.538;49.366;2022-08-21T08:02:56;38.40;20.30
67196;DHT22;54122;53.538;49.366;2022-08-21T08:05:29;38.90;20.10
67196;DHT22;54122;53.538;49.366;2022-08-21T08:08:00;38.90;19.60
67196;DHT22;54122;53.538;49.366;2022-08-21T08:10:32;38.80;19.40
67196;DHT22;54122;53.538;49.366;2022-08-21T08:13:03;38.50;19.80
67196;DHT22;54122;53.538;49.366;2022-08-21T08:15:35;38.20;19.90
67196;DHT22;54122;53.538;49.366;2022-08-21T08:18:07;38.00;20.20
67196;DHT22;54122;53.538;49.366;2022-08-21T08:20:38;38.10;20.00
67196;DHT22;54122;53.538;49.366;2022-08-21T08:23:10;38.60;19.80
67196;DHT22;54122;53.538;49.366;2022-08-21T08:25:41;38.90;19.50
67196;DHT22;54122;53.538;49.366;2022-08-21T08:28:13;38.70;19.30
67196;DHT22;54122;53.538;49.366;2022-08-21T08:30:45;38.60;19.30
67196;DHT22;54122;53.538;49.366;2022-08-21T08:33:16;38.30;19.10
67196;DHT22;54122;53.538;49.366;2022-08-21T08:35:49;37.80;19.50
67196;DHT22;54122;53.538;49.366;2022-08-21T08:38:21;37.50;19.80
67196;DHT22;54122;53.538;49.366;2022-08-21T08:41:12;37.30;20.10
67196;DHT22;54122;53.538;49.366;2022-08-21T08:43:49;37.40;20.40
67196;DHT22;54122;53.538;49.366;2022-08-21T08:46:25;38.00;19.90
67196;DHT22;54122;53.538;49.366;2022-08-21T08:49:00;38.10;19.20
67196;DHT22;54122;53.538;49.366;2022-08-21T08:51:39;37.90;19.60
67196;DHT22;54122;53.538;49.366;2022-08-21T08:54:17;37.90;19.70
67196;DHT22;54122;53.538;49.366;2022-08-21T08:56:50;37.80;19.60
67196;DHT22;54122;53.538;49.366;2022-08-21T08:59:26;38.00;19.50
67196;DHT22;54122;53.538;49.366;2022-08-21T09:01:58;37.80;19.50
67196;DHT22;54122;53.538;49.366;2022-08-21T09:04:29;37.90;19.60
67196;DHT22;54122;53.538;49.366;2022-08-21T09:25:52;36.30;20.80
67196;DHT22;54122;53.538;49.366;2022-08-21T09:28:24;36.00;21.10
67196;DHT22;54122;53.538;49.366;2022-08-21T09:30:56;35.60;21.30
67196;DHT22;54122;53.538;49.366;2022-08-21T09:33:28;35.10;21.70
67196;DHT22;54122;53.538;49.366;2022-08-21T09:36:00;34.60;22.50
67196;DHT22;54122;53.538;49.366;2022-08-21T09:38:32;34.40;22.70
67196;DHT22;54122;53.538;49.366;2022-08-21T09:41:05;34.20;23.30
67196;DHT22;54122;53.538;49.366;2022-08-21T09:43:37;34.00;23.60
67196;DHT22;54122;53.538;49.366;2022-08-21T09:46:10;33.70;23.80
67196;DHT22;54122;53.538;49.366;2022-08-21T09:48:46;33.40;24.50
67196;DHT22;54122;53.538;49.366;2022-08-21T09:51:20;33.30;24.70
67196;DHT22;54122;53.538;49.366;2022-08-21T09:54:14;33.20;25.00
67196;DHT22;54122;53.538;49.366;2022-08-21T09:56:56;33.10;25.10
67196;DHT22;54122;53.538;49.366;2022-08-21T09:59:46;32.90;25.60
67196;DHT22;54122;53.538;49.366;2022-08-21T10:02:22;32.60;25.30
67196;DHT22;54122;53.538;49.366;2022-08-21T10:04:56;32.40;25.80
67196;DHT22;54122;53.538;49.366;2022-08-21T10:07:30;32.30;26.00
67196;DHT22;54122;53.538;49.366;2022-08-21T10:20:37;31.70;26.40
67196;DHT22;54122;53.538;49.366;2022-08-21T10:23:18;31.70;27.50
67196;DHT22;54122;53.538;49.366;2022-08-21T10:28:47;31.80;26.80
67196;DHT22;54122;53.538;49.366;2022-08-21T10:47:54;31.60;27.60
67196;DHT22;54122;53.538;49.366;2022-08-21T10:50:31;31.40;27.50
67196;DHT22;54122;53.538;49.366;2022-08-21T10:53:28;31.20;28.00
67196;DHT22;54122;53.538;49.366;2022-08-21T10:56:06;31.20;28.10
67196;DHT22;54122;53.538;49.366;2022-08-21T10:58:48;31.20;27.80
67196;DHT22;54122;53.538;49.366;2022-08-21T11:01:23;31.10;27.90
67196;DHT22;54122;53.538;49.366;2022-08-21T11:04:40;31.20;27.90
67196;DHT22;54122;53.538;49.366;2022-08-21T11:06:52;31.20;27.80
67196;DHT22;54122;53.538;49.366;2022-08-21T11:09:24;31.20;27.90
67196;DHT22;54122;53.538;49.366;2022-08-21T11:12:31;31.20;27.90
67196;DHT22;54122;53.538;49.366;2022-08-21T11:17:31;31.20;28.00
67196;DHT22;54122;53.538;49.366;2022-08-21T11:20:12;31.30;28.20
67196;DHT22;54122;53.538;49.366;2022-08-21T11:22:58;31.40;28.30
67196;DHT22;54122;53.538;49.366;2022-08-21T11:25:36;31.60;28.40
67196;DHT22;54122;53.538;49.366;2022-08-21T11:28:10;31.70;28.20
67196;DHT22;54122;53.538;49.366;2022-08-21T11:33:29;31.60;27.30
67196;DHT22;54122;53.538;49.366;2022-08-21T11:36:09;31.60;27.30
67196;DHT22;54122;53.538;49.366;2022-08-21T11:38:53;31.70;27.10
67196;DHT22;54122;53.538;49.366;2022-08-21T11:41:34;31.60;27.20
67196;DHT22;54122;53.538;49.366;2022-08-21T11:44:15;31.20;27.10
67196;DHT22;54122;53.538;49.366;2022-08-21T11:57:45;31.10;27.30
67196;DHT22;54122;53.538;49.366;2022-08-21T12:00:23;31.20;27.40
67196;DHT22;54122;53.538;49.366;2022-08-21T12:02:56;31.20;27.40
67196;DHT22;54122;53.538;49.366;2022-08-21T12:05:30;31.20;27.40
67196;DHT22;54122;53.538;49.366;2022-08-21T12:10:37;31.30;27.30
67196;DHT22;54122;53.538;49.366;2022-08-21T12:13:24;31.30;27.20
67196;DHT22;54122;53.538;49.366;2022-08-21T12:16:10;31.20;26.90
67196;DHT22;54122;53.538;49.366;2022-08-21T12:18:42;31.10;26.60
67196;DHT22;54122;53.538;49.366;2022-08-21T12:24:00;31.10;27.10
67196;DHT22;54122;53.538;49.366;2022-08-21T12:26:34;31.00;27.10
67196;DHT22;54122;53.538;49.366;2022-08-21T12:29:21;31.10;27.40
67196;DHT22;54122;53.538;49.366;2022-08-21T12:32:00;31.10;27.40
67196;DHT22;54122;53.538;49.366;2022-08-21T12:34:40;31.10;27.30
67196;DHT22;54122;53.538;49.366;2022-08-21T12:39:47;31.20;27.10
67196;DHT22;54122;53.538;49.366;2022-08-21T12:42:24;31.30;27.20
67196;DHT22;54122;53.538;49.366;2022-08-21T12:45:02;31.40;27.40
67196;DHT22;54122;53.538;49.366;2022-08-21T12:47:44;31.40;27.20
67196;DHT22;54122;53.538;49.366;2022-08-21T12:50:21;31.40;27.00
67196;DHT22;54122;53.538;49.366;2022-08-21T12:52:58;31.30;26.50
67196;DHT22;54122;53.538;49.366;2022-08-21T12:55:31;31.10;26.90
67196;DHT22;54122;53.538;49.366;2022-08-21T12:58:04;30.90;27.10
67196;DHT22;54122;53.538;49.366;2022-08-21T13:00:36;30.70;27.10
67196;DHT22;54122;53.538;49.366;2022-08-21T13:03:09;30.50;26.90
67196;DHT22;54122;53.538;49.366;2022-08-21T13:05:40;30.50;26.80
67196;DHT22;54122;53.538;49.366;2022-08-21T13:08:12;30.50;26.00
67196;DHT22;54122;53.538;49.366;2022-08-21T13:10:44;30.40;26.40
67196;DHT22;54122;53.538;49.366;2022-08-21T13:13:19;30.30;26.60
67196;DHT22;54122;53.538;49.366;2022-08-21T13:15:56;30.20;26.40
67196;DHT22;54122;53.538;49.366;2022-08-21T13:18:29;30.20;26.70
67196;DHT22;54122;53.538;49.366;2022-08-21T13:21:10;30.30;26.60
67196;DHT22;54122;53.538;49.366;2022-08-21T13:23:42;30.30;26.90
67196;DHT22;54122;53.538;49.366;2022-08-21T13:26:14;30.30;26.90
67196;DHT22;54122;53.538;49.366;2022-08-21T13:28:48;30.30;26.60
67196;DHT22;54122;53.538;49.366;2022-08-21T13:31:22;30.20;26.10
67196;DHT22;54122;53.538;49.366;2022-08-21T13:33:55;30.30;26.20
67196;DHT22;54122;53.538;49.366;2022-08-21T13:36:29;30.20;26.30
67196;DHT22;54122;53.538;49.366;2022-08-21T13:39:03;30.30;27.10
67196;DHT22;54122;53.538;49.366;2022-08-21T13:41:36;30.30;26.30
67196;DHT22;54122;53.538;49.366;2022-08-21T13:44:18;30.20;26.30
67196;DHT22;54122;53.538;49.366;2022-08-21T13:46:49;30.10;26.40
67196;DHT22;54122;53.538;49.366;2022-08-21T13:49:23;30.00;26.60
67196;DHT22;54122;53.538;49.366;2022-08-21T13:51:58;30.00;26.70
67196;DHT22;54122;53.538;49.366;2022-08-21T13:54:36;30.00;27.00
67196;DHT22;54122;53.538;49.366;2022-08-21T13:57:19;30.00;27.00
67196;DHT22;54122;53.538;49.366;2022-08-21T13:59:50;29.90;27.10
67196;DHT22;54122;53.538;49.366;2022-08-21T14:02:23;29.90;27.30
67196;DHT22;54122;53.538;49.366;2022-08-21T14:04:58;29.80;27.20
67196;DHT22;54122;53.538;49.366;2022-08-21T14:07:38;29.80;27.20
67196;DHT22;54122;53.538;49.366;2022-08-21T14:10:13;29.70;27.00
67196;DHT22;54122;53.538;49.366;2022-08-21T14:13:04;29.60;27.20
67196;DHT22;54122;53.538;49.366;2022-08-21T14:15:36;29.40;27.30
67196;DHT22;54122;53.538;49.366;2022-08-21T14:18:13;29.40;27.50
67196;DHT22;54122;53.538;49.366;2022-08-21T14:20:45;29.30;27.60
67196;DHT22;54122;53.538;49.366;2022-08-21T14:23:26;29.30;27.70
67196;DHT22;54122;53.538;49.366;2022-08-21T14:26:02;29.20;27.90
67196;DHT22;54122;53.538;49.366;2022-08-21T14:28:34;29.10;28.00
67196;DHT22;54122;53.538;49.366;2022-08-21T14:31:13;29.00;27.90
67196;DHT22;54122;53.538;49.366;2022-08-21T14:33:44;28.90;27.90
67196;DHT22;54122;53.538;49.366;2022-08-21T14:36:16;28.90;28.00
67196;DHT22;54122;53.538;49.366;2022-08-21T14:38:47;28.80;28.10
67196;DHT22;54122;53.538;49.366;2022-08-21T14:41:23;28.70;28.40
67196;DHT22;54122;53.538;49.366;2022-08-21T14:43:55;28.60;28.30
67196;DHT22;54122;53.538;49.366;2022-08-21T14:46:28;28.50;28.60
67196;DHT22;54122;53.538;49.366;2022-08-21T14:48:59;28.40;28.70
67196;DHT22;54122;53.538;49.366;2022-08-21T14:51:31;28.30;28.90
67196;DHT22;54122;53.538;49.366;2022-08-21T14:54:02;28.30;29.10
67196;DHT22;54122;53.538;49.366;2022-08-21T14:56:34;28.20;29.10
67196;DHT22;54122;53.538;49.366;2022-08-21T14:59:06;28.20;29.10
67196;DHT22;54122;53.538;49.366;2022-08-21T15:01:38;28.10;29.10
67196;DHT22;54122;53.538;49.366;2022-08-21T15:04:10;28.00;29.30
67196;DHT22;54122;53.538;49.366;2022-08-21T15:06:41;28.00;29.50
67196;DHT22;54122;53.538;49.366;2022-08-21T15:09:13;27.80;29.50
67196;DHT22;54122;53.538;49.366;2022-08-21T15:11:44;27.70;29.70
67196;DHT22;54122;53.538;49.366;2022-08-21T15:14:24;27.60;30.00
67196;DHT22;54122;53.538;49.366;2022-08-21T15:16:56;27.50;30.30
67196;DHT22;54122;53.538;49.366;2022-08-21T15:19:27;27.40;30.60
67196;DHT22;54122;53.538;49.366;2022-08-21T15:22:00;27.20;31.10
67196;DHT22;54122;53.538;49.366;2022-08-21T15:24:31;27.10;31.60
67196;DHT22;54122;53.538;49.366;2022-08-21T15:27:03;27.00;31.60
67196;DHT22;54122;53.538;49.366;2022-08-21T15:29:35;26.90;32.20
67196;DHT22;54122;53.538;49.366;2022-08-21T15:32:25;26.80;32.20
67196;DHT22;54122;53.538;49.366;2022-08-21T15:34:58;26.60;32.60
67196;DHT22;54122;53.538;49.366;2022-08-21T15:37:29;26.40;32.80
67196;DHT22;54122;53.538;49.366;2022-08-21T15:40:01;26.40;33.00
67196;DHT22;54122;53.538;49.366;2022-08-21T15:42:32;26.30;33.00
67196;DHT22;54122;53.538;49.366;2022-08-21T15:45:04;26.20;33.50
67196;DHT22;54122;53.538;49.366;2022-08-21T15:47:36;26.00;33.80
67196;DHT22;54122;53.538;49.366;2022-08-21T15:50:08;25.80;34.60
67196;DHT22;54122;53.538;49.366;2022-08-21T15:52:40;25.60;35.30
67196;DHT22;54122;53.538;49.366;2022-08-21T15:55:11;25.40;36.10
67196;DHT22;54122;53.538;49.366;2022-08-21T15:57:45;25.30;36.70
67196;DHT22;54122;53.538;49.366;2022-08-21T16:00:18;25.10;37.50
67196;DHT22;54122;53.538;49.366;2022-08-21T16:02:52;24.80;38.10
67196;DHT22;54122;53.538;49.366;2022-08-21T16:05:24;24.70;38.70
67196;DHT22;54122;53.538;49.366;2022-08-21T16:07:55;24.50;39.20
67196;DHT22;54122;53.538;49.366;2022-08-21T16:10:26;24.30;39.40
67196;DHT22;54122;53.538;49.366;2022-08-21T16:12:58;24.20;39.90
67196;DHT22;54122;53.538;49.366;2022-08-21T16:15:31;24.00;40.50
67196;DHT22;54122;53.538;49.366;2022-08-21T16:18:03;23.80;41.10
67196;DHT22;54122;53.538;49.366;2022-08-21T16:20:35;23.70;41.50
67196;DHT22;54122;53.538;49.366;2022-08-21T16:23:06;23.60;41.50
67196;DHT22;54122;53.538;49.366;2022-08-21T16:25:37;23.50;41.70
67196;DHT22;54122;53.538;49.366;2022-08-21T16:28:10;23.40;42.10
67196;DHT22;54122;53.538;49.366;2022-08-21T16:30:48;23.30;42.60
67196;DHT22;54122;53.538;49.366;2022-08-21T16:33:24;23.20;43.00
67196;DHT22;54122;53.538;49.366;2022-08-21T16:35:58;23.10;43.40
67196;DHT22;54122;53.538;49.366;2022-08-21T16:38:30;23.00;43.90
67196;DHT22;54122;53.538;49.366;2022-08-21T16:41:11;22.90;44.10
67196;DHT22;54122;53.538;49.366;2022-08-21T16:43:44;22.80;44.30
67196;DHT22;54122;53.538;49.366;2022-08-21T16:46:16;22.70;44.70
67196;DHT22;54122;53.538;49.366;2022-08-21T16:48:47;22.60;44.70
67196;DHT22;54122;53.538;49.366;2022-08-21T16:51:21;22.40;44.80
67196;DHT22;54122;53.538;49.366;2022-08-21T16:53:52;22.30;45.20
67196;DHT22;54122;53.538;49.366;2022-08-21T16:56:23;22.30;45.60
67196;DHT22;54122;53.538;49.366;2022-08-21T16:58:55;22.20;45.80
67196;DHT22;54122;53.538;49.366;2022-08-21T17:01:30;22.10;46.10
67196;DHT22;54122;53.538;49.366;2022-08-21T17:04:03;22.10;46.40
67196;DHT22;54122;53.538;49.366;2022-08-21T17:06:35;22.00;46.70
67196;DHT22;54122;53.538;49.366;2022-08-21T17:09:08;22.00;46.80
67196;DHT22;54122;53.538;49.366;2022-08-21T17:11:41;22.00;46.80